sensor_id;sensor_type;location;lat;lon;timestamp;P1;durP1;ratioP1;P2;durP2;ratioP2
21444;SDS011;10883;51.946;20.140;2023-05-29T00:00:56;17.05;;;7.10;;
21444;SDS011;10883;51.946;20.140;2023-05-29T00:03:22;17.02;;;6.30;;
21444;SDS011;10883;51.946;20.140;2023-05-29T00:05:48;17.35;;;6.85;;
21444;SDS011;10883;51.946;20.140;2023-05-29T00:08:14;20.15;;;7.90;;
21444;SDS011;10883;51.946;20.140;2023-05-29T00:10:40;22.13;;;7.50;;
21444;SDS011;10883;51.946;20.140;2023-05-29T00:13:06;20.35;;;7.75;;
21444;SDS011;10883;51.946;20.140;2023-05-29T00:15:32;16.55;;;7.35;;
21444;SDS011;10883;51.946;20.140;2023-05-29T00:17:58;18.17;;;7.35;;
21444;SDS011;10883;51.946;20.140;2023-05-29T00:20:23;19.38;;;6.70;;
21444;SDS011;10883;51.946;20.140;2023-05-29T00:22:49;14.88;;;7.47;;
21444;SDS011;10883;51.946;20.140;2023-05-29T00:25:15;14.43;;;6.35;;
21444;SDS011;10883;51.946;20.140;2023-05-29T00:27:41;19.55;;;6.75;;
21444;SDS011;10883;51.946;20.140;2023-05-29T00:30:07;13.48;;;6.22;;
21444;SDS011;10883;51.946;20.140;2023-05-29T00:32:33;13.23;;;7.07;;
21444;SDS011;10883;51.946;20.140;2023-05-29T00:34:59;15.60;;;6.53;;
21444;SDS011;10883;51.946;20.140;2023-05-29T00:37:25;14.32;;;6.45;;
21444;SDS011;10883;51.946;20.140;2023-05-29T00:39:51;15.10;;;5.78;;
21444;SDS011;10883;51.946;20.140;2023-05-29T00:42:16;15.10;;;6.20;;
21444;SDS011;10883;51.946;20.140;2023-05-29T00:44:42;14.63;;;6.05;;
21444;SDS011;10883;51.946;20.140;2023-05-29T00:47:08;13.63;;;6.30;;
21444;SDS011;10883;51.946;20.140;2023-05-29T00:49:35;14.02;;;6.18;;
21444;SDS011;10883;51.946;20.140;2023-05-29T00:52:02;15.48;;;6.55;;
21444;SDS011;10883;51.946;20.140;2023-05-29T00:54:31;11.05;;;5.45;;
21444;SDS011;10883;51.946;20.140;2023-05-29T00:56:57;12.45;;;6.13;;
21444;SDS011;10883;51.946;20.140;2023-05-29T00:59:29;16.92;;;6.57;;
21444;SDS011;10883;51.946;20.140;2023-05-29T01:01:56;12.63;;;6.35;;
21444;SDS011;10883;51.946;20.140;2023-05-29T01:04:23;11.32;;;6.13;;
21444;SDS011;10883;51.946;20.140;2023-05-29T01:06:51;12.00;;;5.43;;
21444;SDS011;10883;51.946;20.140;2023-05-29T01:09:17;11.15;;;5.35;;
21444;SDS011;10883;51.946;20.140;2023-05-29T01:14:28;12.55;;;4.97;;
21444;SDS011;10883;51.946;20.140;2023-05-29T01:28:16;12.98;;;6.13;;
21444;SDS011;10883;51.946;20.140;2023-05-29T01:30:47;15.52;;;6.47;;
21444;SDS011;10883;51.946;20.140;2023-05-29T01:33:14;14.30;;;6.43;;
21444;SDS011;10883;51.946;20.140;2023-05-29T01:35:40;13.68;;;5.72;;
21444;SDS011;10883;51.946;20.140;2023-05-29T01:38:06;15.13;;;6.20;;
21444;SDS011;10883;51.946;20.140;2023-05-29T01:40:32;12.23;;;6.30;;
21444;SDS011;10883;51.946;20.140;2023-05-29T01:42:57;13.88;;;5.95;;
21444;SDS011;10883;51.946;20.140;2023-05-29T01:45:23;11.80;;;5.90;;
21444;SDS011;10883;51.946;20.140;2023-05-29T01:47:50;13.82;;;5.20;;
21444;SDS011;10883;51.946;20.140;2023-05-29T01:50:17;10.73;;;5.55;;
21444;SDS011;10883;51.946;20.140;2023-05-29T01:52:44;11.10;;;6.07;;
21444;SDS011;10883;51.946;20.140;2023-05-29T01:55:10;11.10;;;5.03;;
21444;SDS011;10883;51.946;20.140;2023-05-29T01:57:36;12.50;;;6.15;;
21444;SDS011;10883;51.946;20.140;2023-05-29T02:00:03;11.95;;;5.88;;
21444;SDS011;10883;51.946;20.140;2023-05-29T02:02:37;10.95;;;5.20;;
21444;SDS011;10883;51.946;20.140;2023-05-29T02:05:04;9.75;;;5.22;;
21444;SDS011;10883;51.946;20.140;2023-05-29T02:07:32;11.73;;;5.78;;
21444;SDS011;10883;51.946;20.140;2023-05-29T02:09:59;18.98;;;7.88;;
21444;SDS011;10883;51.946;20.140;2023-05-29T02:12:25;29.10;;;11.88;;
21444;SDS011;10883;51.946;20.140;2023-05-29T02:14:51;25.55;;;11.40;;
21444;SDS011;10883;51.946;20.140;2023-05-29T02:17:17;19.60;;;10.63;;
21444;SDS011;10883;51.946;20.140;2023-05-29T02:19:44;22.00;;;11.75;;
21444;SDS011;10883;51.946;20.140;2023-05-29T02:22:10;24.42;;;12.02;;
21444;SDS011;10883;51.946;20.140;2023-05-29T02:24:36;20.88;;;11.02;;
21444;SDS011;10883;51.946;20.140;2023-05-29T02:27:02;16.63;;;9.57;;
21444;SDS011;10883;51.946;20.140;2023-05-29T02:29:28;17.00;;;9.80;;
21444;SDS011;10883;51.946;20.140;2023-05-29T02:31:54;17.10;;;9.30;;
21444;SDS011;10883;51.946;20.140;2023-05-29T02:34:20;14.68;;;9.00;;
21444;SDS011;10883;51.946;20.140;2023-05-29T02:36:48;14.85;;;8.82;;
21444;SDS011;10883;51.946;20.140;2023-05-29T02:39:15;12.75;;;7.45;;
21444;SDS011;10883;51.946;20.140;2023-05-29T02:41:41;17.25;;;8.63;;
21444;SDS011;10883;51.946;20.140;2023-05-29T02:44:06;12.35;;;7.97;;
21444;SDS011;10883;51.946;20.140;2023-05-29T02:46:32;15.05;;;8.40;;
21444;SDS011;10883;51.946;20.140;2023-05-29T02:48:58;16.27;;;8.40;;
21444;SDS011;10883;51.946;20.140;2023-05-29T02:51:24;11.35;;;6.43;;
21444;SDS011;10883;51.946;20.140;2023-05-29T02:53:50;10.18;;;6.60;;
21444;SDS011;10883;51.946;20.140;2023-05-29T02:56:15;11.13;;;7.10;;
21444;SDS011;10883;51.946;20.140;2023-05-29T02:58:41;13.43;;;8.48;;
21444;SDS011;10883;51.946;20.140;2023-05-29T03:01:07;13.38;;;8.60;;
21444;SDS011;10883;51.946;20.140;2023-05-29T03:03:34;12.38;;;7.22;;
21444;SDS011;10883;51.946;20.140;2023-05-29T03:05:59;15.30;;;6.90;;
21444;SDS011;10883;51.946;20.140;2023-05-29T03:08:26;12.32;;;6.70;;
21444;SDS011;10883;51.946;20.140;2023-05-29T03:10:53;11.00;;;6.20;;
21444;SDS011;10883;51.946;20.140;2023-05-29T03:13:20;11.82;;;6.57;;
21444;SDS011;10883;51.946;20.140;2023-05-29T03:15:46;11.82;;;7.68;;
21444;SDS011;10883;51.946;20.140;2023-05-29T03:18:12;10.52;;;8.73;;
21444;SDS011;10883;51.946;20.140;2023-05-29T03:20:38;12.43;;;8.50;;
21444;SDS011;10883;51.946;20.140;2023-05-29T03:23:04;10.63;;;7.80;;
21444;SDS011;10883;51.946;20.140;2023-05-29T03:25:30;15.40;;;7.72;;
21444;SDS011;10883;51.946;20.140;2023-05-29T03:27:56;10.70;;;7.40;;
21444;SDS011;10883;51.946;20.140;2023-05-29T03:30:22;11.57;;;7.35;;
21444;SDS011;10883;51.946;20.140;2023-05-29T03:32:48;11.82;;;6.82;;
21444;SDS011;10883;51.946;20.140;2023-05-29T03:35:13;14.32;;;7.75;;
21444;SDS011;10883;51.946;20.140;2023-05-29T03:37:39;12.90;;;6.90;;
21444;SDS011;10883;51.946;20.140;2023-05-29T03:40:05;29.30;;;12.00;;
21444;SDS011;10883;51.946;20.140;2023-05-29T03:42:32;22.73;;;10.82;;
21444;SDS011;10883;51.946;20.140;2023-05-29T03:44:57;27.23;;;12.85;;
21444;SDS011;10883;51.946;20.140;2023-05-29T03:47:23;24.52;;;12.20;;
21444;SDS011;10883;51.946;20.140;2023-05-29T03:49:49;19.17;;;10.00;;
21444;SDS011;10883;51.946;20.140;2023-05-29T03:52:15;22.90;;;10.25;;
21444;SDS011;10883;51.946;20.140;2023-05-29T03:54:41;17.05;;;9.00;;
21444;SDS011;10883;51.946;20.140;2023-05-29T03:57:07;22.58;;;8.07;;
21444;SDS011;10883;51.946;20.140;2023-05-29T03:59:33;19.85;;;9.50;;
21444;SDS011;10883;51.946;20.140;2023-05-29T04:01:59;15.60;;;8.25;;
21444;SDS011;10883;51.946;20.140;2023-05-29T04:04:25;21.23;;;9.35;;
21444;SDS011;10883;51.946;20.140;2023-05-29T04:06:52;17.25;;;8.25;;
21444;SDS011;10883;51.946;20.140;2023-05-29T04:09:17;19.80;;;9.48;;
21444;SDS011;10883;51.946;20.140;2023-05-29T04:11:43;16.58;;;9.13;;
21444;SDS011;10883;51.946;20.140;2023-05-29T04:14:09;15.68;;;9.98;;
21444;SDS011;10883;51.946;20.140;2023-05-29T04:16:35;16.77;;;10.82;;
21444;SDS011;10883;51.946;20.140;2023-05-29T04:19:01;24.08;;;10.45;;
21444;SDS011;10883;51.946;20.140;2023-05-29T04:21:27;14.35;;;9.50;;
21444;SDS011;10883;51.946;20.140;2023-05-29T04:23:52;19.63;;;10.45;;
21444;SDS011;10883;51.946;20.140;2023-05-29T04:26:19;18.65;;;9.95;;
21444;SDS011;10883;51.946;20.140;2023-05-29T04:28:50;13.50;;;8.20;;
21444;SDS011;10883;51.946;20.140;2023-05-29T04:31:22;14.75;;;6.70;;
21444;SDS011;10883;51.946;20.140;2023-05-29T04:33:50;12.63;;;7.00;;
21444;SDS011;10883;51.946;20.140;2023-05-29T04:36:25;14.15;;;7.40;;
21444;SDS011;10883;51.946;20.140;2023-05-29T04:38:53;13.73;;;7.28;;
21444;SDS011;10883;51.946;20.140;2023-05-29T04:41:19;16.40;;;7.35;;
21444;SDS011;10883;51.946;20.140;2023-05-29T04:43:49;14.45;;;7.03;;
21444;SDS011;10883;51.946;20.140;2023-05-29T04:46:16;16.58;;;6.00;;
21444;SDS011;10883;51.946;20.140;2023-05-29T04:48:42;17.05;;;7.07;;
21444;SDS011;10883;51.946;20.140;2023-05-29T04:51:09;12.50;;;5.85;;
21444;SDS011;10883;51.946;20.140;2023-05-29T04:53:38;10.55;;;5.22;;
21444;SDS011;10883;51.946;20.140;2023-05-29T04:56:06;10.32;;;5.35;;
21444;SDS011;10883;51.946;20.140;2023-05-29T04:58:32;11.02;;;4.97;;
21444;SDS011;10883;51.946;20.140;2023-05-29T05:00:58;11.60;;;4.93;;
21444;SDS011;10883;51.946;20.140;2023-05-29T05:03:24;8.48;;;4.40;;
21444;SDS011;10883;51.946;20.140;2023-05-29T05:05:50;6.90;;;4.10;;
21444;SDS011;10883;51.946;20.140;2023-05-29T05:08:17;9.80;;;4.00;;
21444;SDS011;10883;51.946;20.140;2023-05-29T05:10:43;7.63;;;3.63;;
21444;SDS011;10883;51.946;20.140;2023-05-29T05:13:09;8.63;;;4.45;;
21444;SDS011;10883;51.946;20.140;2023-05-29T05:15:36;6.40;;;3.88;;
21444;SDS011;10883;51.946;20.140;2023-05-29T05:18:02;9.80;;;3.65;;
21444;SDS011;10883;51.946;20.140;2023-05-29T05:20:27;10.30;;;4.03;;
21444;SDS011;10883;51.946;20.140;2023-05-29T05:22:53;8.07;;;4.22;;
21444;SDS011;10883;51.946;20.140;2023-05-29T05:25:21;8.07;;;3.80;;
21444;SDS011;10883;51.946;20.140;2023-05-29T05:27:46;8.15;;;3.65;;
21444;SDS011;10883;51.946;20.140;2023-05-29T05:30:12;11.00;;;4.13;;
21444;SDS011;10883;51.946;20.140;2023-05-29T05:32:38;8.95;;;3.95;;
21444;SDS011;10883;51.946;20.140;2023-05-29T05:35:04;7.68;;;3.80;;
21444;SDS011;10883;51.946;20.140;2023-05-29T05:37:30;10.10;;;3.63;;
21444;SDS011;10883;51.946;20.140;2023-05-29T05:39:56;10.60;;;3.95;;
21444;SDS011;10883;51.946;20.140;2023-05-29T05:42:23;13.50;;;3.95;;
21444;SDS011;10883;51.946;20.140;2023-05-29T05:44:49;6.82;;;4.03;;
21444;SDS011;10883;51.946;20.140;2023-05-29T05:47:15;8.95;;;4.53;;
21444;SDS011;10883;51.946;20.140;2023-05-29T05:49:40;8.75;;;3.65;;
21444;SDS011;10883;51.946;20.140;2023-05-29T05:52:06;8.52;;;3.55;;
21444;SDS011;10883;51.946;20.140;2023-05-29T05:54:32;8.93;;;3.70;;
21444;SDS011;10883;51.946;20.140;2023-05-29T05:56:58;7.53;;;2.80;;
21444;SDS011;10883;51.946;20.140;2023-05-29T05:59:23;8.13;;;3.35;;
21444;SDS011;10883;51.946;20.140;2023-05-29T06:01:49;6.85;;;2.72;;
21444;SDS011;10883;51.946;20.140;2023-05-29T06:04:15;6.88;;;2.20;;
21444;SDS011;10883;51.946;20.140;2023-05-29T06:06:41;4.90;;;2.30;;
21444;SDS011;10883;51.946;20.140;2023-05-29T06:09:07;11.15;;;2.33;;
21444;SDS011;10883;51.946;20.140;2023-05-29T06:11:34;7.22;;;2.20;;
21444;SDS011;10883;51.946;20.140;2023-05-29T06:14:00;7.13;;;2.33;;
21444;SDS011;10883;51.946;20.140;2023-05-29T06:16:26;4.40;;;2.50;;
21444;SDS011;10883;51.946;20.140;2023-05-29T06:18:51;4.53;;;2.03;;
21444;SDS011;10883;51.946;20.140;2023-05-29T06:21:17;5.13;;;2.42;;
21444;SDS011;10883;51.946;20.140;2023-05-29T06:23:44;11.00;;;2.80;;
21444;SDS011;10883;51.946;20.140;2023-05-29T06:26:10;8.73;;;3.25;;
21444;SDS011;10883;51.946;20.140;2023-05-29T06:28:37;10.88;;;3.25;;
21444;SDS011;10883;51.946;20.140;2023-05-29T06:31:03;4.60;;;2.22;;
21444;SDS011;10883;51.946;20.140;2023-05-29T06:33:29;6.88;;;2.60;;
21444;SDS011;10883;51.946;20.140;2023-05-29T06:35:55;5.15;;;1.90;;
21444;SDS011;10883;51.946;20.140;2023-05-29T06:38:21;7.78;;;2.67;;
21444;SDS011;10883;51.946;20.140;2023-05-29T06:40:46;7.80;;;2.05;;
21444;SDS011;10883;51.946;20.140;2023-05-29T06:43:12;8.20;;;1.95;;
21444;SDS011;10883;51.946;20.140;2023-05-29T06:45:38;3.25;;;1.60;;
21444;SDS011;10883;51.946;20.140;2023-05-29T06:48:04;15.27;;;2.47;;
21444;SDS011;10883;51.946;20.140;2023-05-29T06:50:30;4.80;;;2.25;;
21444;SDS011;10883;51.946;20.140;2023-05-29T06:52:56;9.68;;;2.17;;
21444;SDS011;10883;51.946;20.140;2023-05-29T06:55:22;4.75;;;1.52;;
21444;SDS011;10883;51.946;20.140;2023-05-29T06:57:48;9.00;;;1.83;;
21444;SDS011;10883;51.946;20.140;2023-05-29T07:00:14;4.05;;;1.33;;
21444;SDS011;10883;51.946;20.140;2023-05-29T07:02:40;2.58;;;1.63;;
21444;SDS011;10883;51.946;20.140;2023-05-29T07:05:06;5.72;;;1.65;;
21444;SDS011;10883;51.946;20.140;2023-05-29T07:07:32;4.05;;;1.60;;
21444;SDS011;10883;51.946;20.140;2023-05-29T07:09:58;3.75;;;1.60;;
21444;SDS011;10883;51.946;20.140;2023-05-29T07:12:23;5.47;;;1.58;;
21444;SDS011;10883;51.946;20.140;2023-05-29T07:14:49;6.00;;;1.98;;
21444;SDS011;10883;51.946;20.140;2023-05-29T07:17:15;10.38;;;2.00;;
21444;SDS011;10883;51.946;20.140;2023-05-29T07:19:41;5.57;;;2.28;;
21444;SDS011;10883;51.946;20.140;2023-05-29T07:22:06;6.68;;;1.60;;
21444;SDS011;10883;51.946;20.140;2023-05-29T07:24:32;5.13;;;1.33;;
21444;SDS011;10883;51.946;20.140;2023-05-29T07:26:58;6.53;;;2.08;;
21444;SDS011;10883;51.946;20.140;2023-05-29T07:29:24;5.18;;;2.08;;
21444;SDS011;10883;51.946;20.140;2023-05-29T07:31:50;2.97;;;1.70;;
21444;SDS011;10883;51.946;20.140;2023-05-29T07:34:17;8.20;;;1.70;;
21444;SDS011;10883;51.946;20.140;2023-05-29T07:37:03;3.35;;;1.80;;
21444;SDS011;10883;51.946;20.140;2023-05-29T07:39:30;4.90;;;1.48;;
21444;SDS011;10883;51.946;20.140;2023-05-29T07:41:57;6.47;;;2.28;;
21444;SDS011;10883;51.946;20.140;2023-05-29T07:44:23;4.00;;;1.83;;
21444;SDS011;10883;51.946;20.140;2023-05-29T07:46:50;5.00;;;1.38;;
21444;SDS011;10883;51.946;20.140;2023-05-29T07:49:16;3.40;;;1.23;;
21444;SDS011;10883;51.946;20.140;2023-05-29T07:51:41;4.47;;;1.40;;
21444;SDS011;10883;51.946;20.140;2023-05-29T07:54:07;3.90;;;1.45;;
21444;SDS011;10883;51.946;20.140;2023-05-29T07:56:33;2.08;;;1.25;;
21444;SDS011;10883;51.946;20.140;2023-05-29T07:58:59;3.30;;;1.50;;
21444;SDS011;10883;51.946;20.140;2023-05-29T08:01:25;2.78;;;1.27;;
21444;SDS011;10883;51.946;20.140;2023-05-29T08:03:52;3.05;;;1.63;;
21444;SDS011;10883;51.946;20.140;2023-05-29T08:06:18;4.15;;;1.42;;
21444;SDS011;10883;51.946;20.140;2023-05-29T08:08:44;4.45;;;2.10;;
21444;SDS011;10883;51.946;20.140;2023-05-29T08:11:10;14.80;;;2.25;;
21444;SDS011;10883;51.946;20.140;2023-05-29T08:13:36;6.70;;;1.77;;
21444;SDS011;10883;51.946;20.140;2023-05-29T08:16:02;7.18;;;1.70;;
21444;SDS011;10883;51.946;20.140;2023-05-29T08:18:29;3.45;;;1.75;;
21444;SDS011;10883;51.946;20.140;2023-05-29T08:20:57;3.55;;;1.42;;
21444;SDS011;10883;51.946;20.140;2023-05-29T08:23:23;5.65;;;1.85;;
21444;SDS011;10883;51.946;20.140;2023-05-29T08:25:49;3.60;;;1.40;;
21444;SDS011;10883;51.946;20.140;2023-05-29T08:28:15;3.78;;;1.70;;
21444;SDS011;10883;51.946;20.140;2023-05-29T08:30:41;3.33;;;1.42;;
21444;SDS011;10883;51.946;20.140;2023-05-29T08:33:07;2.50;;;1.40;;
21444;SDS011;10883;51.946;20.140;2023-05-29T08:35:33;5.38;;;1.92;;
21444;SDS011;10883;51.946;20.140;2023-05-29T08:37:59;2.50;;;1.38;;
21444;SDS011;10883;51.946;20.140;2023-05-29T08:40:25;9.55;;;1.63;;
21444;SDS011;10883;51.946;20.140;2023-05-29T08:42:54;4.00;;;2.20;;
21444;SDS011;10883;51.946;20.140;2023-05-29T08:45:24;2.95;;;1.70;;
21444;SDS011;10883;51.946;20.140;2023-05-29T08:47:51;8.80;;;1.88;;
21444;SDS011;10883;51.946;20.140;2023-05-29T08:50:21;7.50;;;1.67;;
21444;SDS011;10883;51.946;20.140;2023-05-29T08:52:48;4.82;;;1.52;;
21444;SDS011;10883;51.946;20.140;2023-05-29T08:55:15;3.90;;;1.80;;
21444;SDS011;10883;51.946;20.140;2023-05-29T08:57:41;2.72;;;1.42;;
21444;SDS011;10883;51.946;20.140;2023-05-29T09:00:08;5.68;;;1.73;;
21444;SDS011;10883;51.946;20.140;2023-05-29T09:02:41;2.30;;;1.30;;
21444;SDS011;10883;51.946;20.140;2023-05-29T09:05:14;1.95;;;1.33;;
21444;SDS011;10883;51.946;20.140;2023-05-29T09:07:40;6.93;;;1.95;;
21444;SDS011;10883;51.946;20.140;2023-05-29T09:10:06;6.70;;;1.50;;
21444;SDS011;10883;51.946;20.140;2023-05-29T09:12:33;2.90;;;1.50;;
21444;SDS011;10883;51.946;20.140;2023-05-29T09:14:59;5.55;;;2.17;;
21444;SDS011;10883;51.946;20.140;2023-05-29T09:17:30;6.20;;;1.67;;
21444;SDS011;10883;51.946;20.140;2023-05-29T09:19:57;3.15;;;1.30;;
21444;SDS011;10883;51.946;20.140;2023-05-29T09:22:23;3.10;;;1.40;;
21444;SDS011;10883;51.946;20.140;2023-05-29T09:24:49;9.02;;;2.00;;
21444;SDS011;10883;51.946;20.140;2023-05-29T09:27:16;4.32;;;1.85;;
21444;SDS011;10883;51.946;20.140;2023-05-29T09:29:45;6.35;;;1.50;;
21444;SDS011;10883;51.946;20.140;2023-05-29T09:32:15;1.38;;;1.05;;
21444;SDS011;10883;51.946;20.140;2023-05-29T09:34:42;3.70;;;1.27;;
21444;SDS011;10883;51.946;20.140;2023-05-29T09:37:09;2.85;;;1.42;;
21444;SDS011;10883;51.946;20.140;2023-05-29T09:39:49;4.47;;;1.10;;
21444;SDS011;10883;51.946;20.140;2023-05-29T09:42:19;3.40;;;1.52;;
21444;SDS011;10883;51.946;20.140;2023-05-29T09:44:45;2.13;;;1.40;;
21444;SDS011;10883;51.946;20.140;2023-05-29T09:47:18;3.55;;;1.63;;
21444;SDS011;10883;51.946;20.140;2023-05-29T09:49:45;3.30;;;1.90;;
21444;SDS011;10883;51.946;20.140;2023-05-29T09:52:14;2.55;;;1.45;;
21444;SDS011;10883;51.946;20.140;2023-05-29T09:54:44;3.38;;;1.63;;
21444;SDS011;10883;51.946;20.140;2023-05-29T09:57:13;9.93;;;1.50;;
21444;SDS011;10883;51.946;20.140;2023-05-29T09:59:41;3.50;;;1.55;;
21444;SDS011;10883;51.946;20.140;2023-05-29T10:02:10;4.18;;;1.50;;
21444;SDS011;10883;51.946;20.140;2023-05-29T10:04:38;5.50;;;1.90;;
21444;SDS011;10883;51.946;20.140;2023-05-29T10:09:57;3.05;;;1.33;;
21444;SDS011;10883;51.946;20.140;2023-05-29T10:12:26;6.00;;;1.50;;
21444;SDS011;10883;51.946;20.140;2023-05-29T10:14:54;3.42;;;1.73;;
21444;SDS011;10883;51.946;20.140;2023-05-29T10:17:25;3.70;;;1.60;;
21444;SDS011;10883;51.946;20.140;2023-05-29T10:19:55;5.35;;;2.30;;
21444;SDS011;10883;51.946;20.140;2023-05-29T10:22:23;13.00;;;2.30;;
21444;SDS011;10883;51.946;20.140;2023-05-29T10:24:51;2.75;;;1.73;;
21444;SDS011;10883;51.946;20.140;2023-05-29T10:27:18;4.15;;;1.88;;
21444;SDS011;10883;51.946;20.140;2023-05-29T10:30:03;4.13;;;1.67;;
21444;SDS011;10883;51.946;20.140;2023-05-29T10:33:30;2.67;;;1.55;;
21444;SDS011;10883;51.946;20.140;2023-05-29T10:35:48;2.45;;;1.77;;
21444;SDS011;10883;51.946;20.140;2023-05-29T10:38:37;2.35;;;1.20;;
21444;SDS011;10883;51.946;20.140;2023-05-29T10:41:47;5.82;;;1.85;;
21444;SDS011;10883;51.946;20.140;2023-05-29T10:43:55;5.15;;;2.08;;
21444;SDS011;10883;51.946;20.140;2023-05-29T10:49:19;3.08;;;1.40;;
21444;SDS011;10883;51.946;20.140;2023-05-29T10:51:46;3.47;;;1.83;;
21444;SDS011;10883;51.946;20.140;2023-05-29T10:54:13;4.70;;;1.77;;
21444;SDS011;10883;51.946;20.140;2023-05-29T10:56:40;5.57;;;1.80;;
21444;SDS011;10883;51.946;20.140;2023-05-29T10:59:08;5.32;;;1.80;;
21444;SDS011;10883;51.946;20.140;2023-05-29T11:01:34;3.08;;;1.80;;
21444;SDS011;10883;51.946;20.140;2023-05-29T11:04:36;5.45;;;2.00;;
21444;SDS011;10883;51.946;20.140;2023-05-29T11:06:57;9.05;;;2.10;;
21444;SDS011;10883;51.946;20.140;2023-05-29T11:09:33;3.63;;;1.92;;
21444;SDS011;10883;51.946;20.140;2023-05-29T11:12:12;7.07;;;1.80;;
21444;SDS011;10883;51.946;20.140;2023-05-29T11:23:05;3.92;;;2.22;;
21444;SDS011;10883;51.946;20.140;2023-05-29T11:25:37;3.45;;;1.85;;
21444;SDS011;10883;51.946;20.140;2023-05-29T11:28:04;3.42;;;1.42;;
21444;SDS011;10883;51.946;20.140;2023-05-29T11:30:40;10.18;;;2.08;;
21444;SDS011;10883;51.946;20.140;2023-05-29T11:33:07;4.68;;;1.77;;
21444;SDS011;10883;51.946;20.140;2023-05-29T11:35:36;7.30;;;1.98;;
21444;SDS011;10883;51.946;20.140;2023-05-29T11:38:04;3.60;;;1.63;;
21444;SDS011;10883;51.946;20.140;2023-05-29T11:40:35;3.13;;;1.70;;
21444;SDS011;10883;51.946;20.140;2023-05-29T11:43:02;4.28;;;2.05;;
21444;SDS011;10883;51.946;20.140;2023-05-29T11:45:31;5.75;;;2.17;;
21444;SDS011;10883;51.946;20.140;2023-05-29T11:47:59;3.60;;;1.98;;
21444;SDS011;10883;51.946;20.140;2023-05-29T11:50:28;6.82;;;2.15;;
21444;SDS011;10883;51.946;20.140;2023-05-29T11:52:56;4.30;;;2.03;;
21444;SDS011;10883;51.946;20.140;2023-05-29T11:55:23;5.15;;;2.25;;
21444;SDS011;10883;51.946;20.140;2023-05-29T11:57:50;2.45;;;1.83;;
21444;SDS011;10883;51.946;20.140;2023-05-29T12:00:20;2.15;;;1.95;;
21444;SDS011;10883;51.946;20.140;2023-05-29T12:02:47;3.58;;;2.28;;
21444;SDS011;10883;51.946;20.140;2023-05-29T12:05:15;3.47;;;2.25;;
21444;SDS011;10883;51.946;20.140;2023-05-29T12:10:15;3.67;;;1.90;;
21444;SDS011;10883;51.946;20.140;2023-05-29T12:12:42;6.03;;;2.22;;
21444;SDS011;10883;51.946;20.140;2023-05-29T12:15:12;3.17;;;1.98;;
21444;SDS011;10883;51.946;20.140;2023-05-29T12:17:38;3.60;;;1.80;;
21444;SDS011;10883;51.946;20.140;2023-05-29T12:20:05;4.95;;;1.90;;
21444;SDS011;10883;51.946;20.140;2023-05-29T12:22:34;3.67;;;1.88;;
21444;SDS011;10883;51.946;20.140;2023-05-29T12:25:08;7.88;;;2.38;;
21444;SDS011;10883;51.946;20.140;2023-05-29T12:27:39;4.30;;;2.10;;
21444;SDS011;10883;51.946;20.140;2023-05-29T12:30:10;1.83;;;1.67;;
21444;SDS011;10883;51.946;20.140;2023-05-29T12:32:40;2.58;;;2.10;;
21444;SDS011;10883;51.946;20.140;2023-05-29T12:35:14;3.50;;;2.17;;
21444;SDS011;10883;51.946;20.140;2023-05-29T12:37:54;4.20;;;1.80;;
21444;SDS011;10883;51.946;20.140;2023-05-29T12:42:53;5.22;;;1.73;;
21444;SDS011;10883;51.946;20.140;2023-05-29T12:45:21;4.03;;;2.42;;
21444;SDS011;10883;51.946;20.140;2023-05-29T12:47:53;3.42;;;1.90;;
21444;SDS011;10883;51.946;20.140;2023-05-29T12:50:26;3.30;;;2.15;;
21444;SDS011;10883;51.946;20.140;2023-05-29T12:52:57;3.00;;;1.73;;
21444;SDS011;10883;51.946;20.140;2023-05-29T12:55:25;6.05;;;1.98;;
21444;SDS011;10883;51.946;20.140;2023-05-29T12:57:52;3.05;;;1.98;;
21444;SDS011;10883;51.946;20.140;2023-05-29T13:00:19;5.95;;;2.25;;
21444;SDS011;10883;51.946;20.140;2023-05-29T13:02:46;5.20;;;2.08;;
21444;SDS011;10883;51.946;20.140;2023-05-29T13:05:13;4.63;;;2.20;;
21444;SDS011;10883;51.946;20.140;2023-05-29T13:07:39;6.57;;;2.30;;
21444;SDS011;10883;51.946;20.140;2023-05-29T13:10:05;3.40;;;2.10;;
21444;SDS011;10883;51.946;20.140;2023-05-29T13:12:31;2.72;;;1.70;;
21444;SDS011;10883;51.946;20.140;2023-05-29T13:14:57;3.45;;;2.10;;
21444;SDS011;10883;51.946;20.140;2023-05-29T13:17:22;3.75;;;1.60;;
21444;SDS011;10883;51.946;20.140;2023-05-29T13:19:48;2.92;;;1.90;;
21444;SDS011;10883;51.946;20.140;2023-05-29T13:22:14;3.83;;;1.75;;
21444;SDS011;10883;51.946;20.140;2023-05-29T13:24:41;3.53;;;1.60;;
21444;SDS011;10883;51.946;20.140;2023-05-29T13:27:07;6.05;;;1.90;;
21444;SDS011;10883;51.946;20.140;2023-05-29T13:29:33;3.45;;;2.00;;
21444;SDS011;10883;51.946;20.140;2023-05-29T13:31:59;8.65;;;2.08;;
21444;SDS011;10883;51.946;20.140;2023-05-29T13:34:26;3.28;;;2.08;;
21444;SDS011;10883;51.946;20.140;2023-05-29T13:36:56;3.50;;;2.00;;
21444;SDS011;10883;51.946;20.140;2023-05-29T13:39:22;4.00;;;1.98;;
21444;SDS011;10883;51.946;20.140;2023-05-29T13:41:49;3.17;;;1.63;;
21444;SDS011;10883;51.946;20.140;2023-05-29T13:44:15;2.55;;;1.70;;
21444;SDS011;10883;51.946;20.140;2023-05-29T13:46:41;2.63;;;1.77;;
21444;SDS011;10883;51.946;20.140;2023-05-29T13:49:07;3.58;;;1.85;;
21444;SDS011;10883;51.946;20.140;2023-05-29T13:51:33;3.95;;;1.55;;
21444;SDS011;10883;51.946;20.140;2023-05-29T13:54:00;2.45;;;1.75;;
21444;SDS011;10883;51.946;20.140;2023-05-29T13:56:27;4.13;;;2.00;;
21444;SDS011;10883;51.946;20.140;2023-05-29T13:58:53;4.30;;;2.13;;
21444;SDS011;10883;51.946;20.140;2023-05-29T14:01:19;2.75;;;1.50;;
21444;SDS011;10883;51.946;20.140;2023-05-29T14:03:45;1.92;;;1.73;;
21444;SDS011;10883;51.946;20.140;2023-05-29T14:06:11;4.35;;;2.58;;
21444;SDS011;10883;51.946;20.140;2023-05-29T14:08:37;2.90;;;1.83;;
21444;SDS011;10883;51.946;20.140;2023-05-29T14:11:03;2.67;;;1.67;;
21444;SDS011;10883;51.946;20.140;2023-05-29T14:13:32;3.90;;;1.58;;
21444;SDS011;10883;51.946;20.140;2023-05-29T14:15:58;4.32;;;1.63;;
21444;SDS011;10883;51.946;20.140;2023-05-29T14:18:24;5.88;;;2.00;;
21444;SDS011;10883;51.946;20.140;2023-05-29T14:20:51;2.42;;;1.70;;
21444;SDS011;10883;51.946;20.140;2023-05-29T14:23:21;2.80;;;1.80;;
21444;SDS011;10883;51.946;20.140;2023-05-29T14:25:48;6.90;;;1.92;;
21444;SDS011;10883;51.946;20.140;2023-05-29T14:28:14;4.75;;;1.70;;
21444;SDS011;10883;51.946;20.140;2023-05-29T14:30:42;4.78;;;1.50;;
21444;SDS011;10883;51.946;20.140;2023-05-29T14:33:16;4.07;;;1.80;;
21444;SDS011;10883;51.946;20.140;2023-05-29T14:35:42;4.10;;;1.80;;
21444;SDS011;10883;51.946;20.140;2023-05-29T14:38:08;4.82;;;1.70;;
21444;SDS011;10883;51.946;20.140;2023-05-29T14:40:33;4.10;;;2.00;;
21444;SDS011;10883;51.946;20.140;2023-05-29T14:43:00;2.63;;;1.88;;
21444;SDS011;10883;51.946;20.140;2023-05-29T14:45:26;4.20;;;1.83;;
21444;SDS011;10883;51.946;20.140;2023-05-29T14:47:52;5.22;;;1.80;;
21444;SDS011;10883;51.946;20.140;2023-05-29T14:50:18;4.45;;;2.00;;
21444;SDS011;10883;51.946;20.140;2023-05-29T14:52:43;4.32;;;2.22;;
21444;SDS011;10883;51.946;20.140;2023-05-29T14:55:10;2.03;;;1.70;;
21444;SDS011;10883;51.946;20.140;2023-05-29T14:57:35;4.03;;;2.25;;
21444;SDS011;10883;51.946;20.140;2023-05-29T15:00:01;6.25;;;2.05;;
21444;SDS011;10883;51.946;20.140;2023-05-29T15:02:29;5.85;;;2.47;;